sensor_id;sensor_type;location;lat;lon;timestamp;temperature;humidity
28767;DHT22;15921;52.034;20.650;2023-04-08T00:00:36;5.50;99.90
28767;DHT22;15921;52.034;20.650;2023-04-08T00:03:02;5.60;99.90
28767;DHT22;15921;52.034;20.650;2023-04-08T00:05:28;5.60;99.90
28767;DHT22;15921;52.034;20.650;2023-04-08T00:07:53;5.70;99.90
28767;DHT22;15921;52.034;20.650;2023-04-08T00:10:20;5.70;99.90
28767;DHT22;15921;52.034;20.650;2023-04-08T00:12:47;5.80;99.90
28767;DHT22;15921;52.034;20.650;2023-04-08T00:15:13;5.80;99.90
28767;DHT22;15921;52.034;20.650;2023-04-08T00:17:39;5.90;99.90
28767;DHT22;15921;52.034;20.650;2023-04-08T00:20:06;5.90;99.90
28767;DHT22;15921;52.034;20.650;2023-04-08T00:22:32;5.90;99.90
28767;DHT22;15921;52.034;20.650;2023-04-08T00:24:57;5.80;99.90
28767;DHT22;15921;52.034;20.650;2023-04-08T00:27:23;5.80;99.90
28767;DHT22;15921;52.034;20.650;2023-04-08T00:29:50;5.70;99.90
28767;DHT22;15921;52.034;20.650;2023-04-08T00:32:16;5.60;99.90
28767;DHT22;15921;52.034;20.650;2023-04-08T00:34:41;5.50;99.90
28767;DHT22;15921;52.034;20.650;2023-04-08T00:37:08;5.30;99.90
28767;DHT22;15921;52.034;20.650;2023-04-08T00:39:33;5.20;99.90
28767;DHT22;15921;52.034;20.650;2023-04-08T00:42:00;5.10;99.90
28767;DHT22;15921;52.034;20.650;2023-04-08T00:44:26;5.00;99.90
28767;DHT22;15921;52.034;20.650;2023-04-08T00:46:52;4.90;99.90
28767;DHT22;15921;52.034;20.650;2023-04-08T00:49:18;4.80;99.90
28767;DHT22;15921;52.034;20.650;2023-04-08T00:51:44;4.80;99.90
28767;DHT22;15921;52.034;20.650;2023-04-08T00:54:10;4.70;99.90
28767;DHT22;15921;52.034;20.650;2023-04-08T00:56:36;4.60;99.90
28767;DHT22;15921;52.034;20.650;2023-04-08T00:59:02;4.50;99.90
28767;DHT22;15921;52.034;20.650;2023-04-08T01:04:40;4.20;99.90
28767;DHT22;15921;52.034;20.650;2023-04-08T01:07:17;4.00;99.90
28767;DHT22;15921;52.034;20.650;2023-04-08T01:09:47;3.90;99.90
28767;DHT22;15921;52.034;20.650;2023-04-08T01:12:17;3.80;99.90
28767;DHT22;15921;52.034;20.650;2023-04-08T01:14:46;3.60;99.90
28767;DHT22;15921;52.034;20.650;2023-04-08T01:17:12;3.60;99.90
28767;DHT22;15921;52.034;20.650;2023-04-08T01:19:39;3.40;99.90
28767;DHT22;15921;52.034;20.650;2023-04-08T01:24:44;3.30;99.90
28767;DHT22;15921;52.034;20.650;2023-04-08T01:27:13;3.10;99.90
28767;DHT22;15921;52.034;20.650;2023-04-08T01:29:40;3.10;99.90
28767;DHT22;15921;52.034;20.650;2023-04-08T01:32:07;3.00;99.90
28767;DHT22;15921;52.034;20.650;2023-04-08T01:34:34;2.90;99.90
28767;DHT22;15921;52.034;20.650;2023-04-08T01:37:01;2.80;99.90
28767;DHT22;15921;52.034;20.650;2023-04-08T01:39:28;2.80;99.90
28767;DHT22;15921;52.034;20.650;2023-04-08T01:41:55;2.70;99.90
28767;DHT22;15921;52.034;20.650;2023-04-08T01:44:21;2.70;99.90
28767;DHT22;15921;52.034;20.650;2023-04-08T01:46:49;2.70;99.90
28767;DHT22;15921;52.034;20.650;2023-04-08T01:49:16;2.60;99.90
28767;DHT22;15921;52.034;20.650;2023-04-08T01:51:43;2.50;99.90
28767;DHT22;15921;52.034;20.650;2023-04-08T01:54:10;2.50;99.90
28767;DHT22;15921;52.034;20.650;2023-04-08T01:56:38;2.40;99.90
28767;DHT22;15921;52.034;20.650;2023-04-08T01:59:09;2.40;99.90
28767;DHT22;15921;52.034;20.650;2023-04-08T02:01:36;2.40;99.90
28767;DHT22;15921;52.034;20.650;2023-04-08T02:04:02;2.30;99.90
28767;DHT22;15921;52.034;20.650;2023-04-08T02:06:29;2.30;99.90
28767;DHT22;15921;52.034;20.650;2023-04-08T02:08:56;2.20;99.90
28767;DHT22;15921;52.034;20.650;2023-04-08T02:11:23;2.20;99.90
28767;DHT22;15921;52.034;20.650;2023-04-08T02:13:50;2.10;99.90
28767;DHT22;15921;52.034;20.650;2023-04-08T02:16:52;2.10;99.90
28767;DHT22;15921;52.034;20.650;2023-04-08T02:19:29;2.00;99.90
28767;DHT22;15921;52.034;20.650;2023-04-08T02:22:10;2.00;99.90
28767;DHT22;15921;52.034;20.650;2023-04-08T02:24:37;1.90;99.90
28767;DHT22;15921;52.034;20.650;2023-04-08T02:27:03;1.90;99.90
28767;DHT22;15921;52.034;20.650;2023-04-08T02:29:31;1.80;99.90
28767;DHT22;15921;52.034;20.650;2023-04-08T02:31:57;1.80;99.90
28767;DHT22;15921;52.034;20.650;2023-04-08T02:34:24;1.70;99.90
28767;DHT22;15921;52.034;20.650;2023-04-08T02:36:51;1.70;99.90
28767;DHT22;15921;52.034;20.650;2023-04-08T02:39:17;1.70;99.90
28767;DHT22;15921;52.034;20.650;2023-04-08T02:41:42;1.60;99.90
28767;DHT22;15921;52.034;20.650;2023-04-08T02:44:09;1.50;99.90
28767;DHT22;15921;52.034;20.650;2023-04-08T02:46:34;1.50;99.90
28767;DHT22;15921;52.034;20.650;2023-04-08T02:49:00;1.50;99.90
28767;DHT22;15921;52.034;20.650;2023-04-08T02:51:26;1.40;99.90
28767;DHT22;15921;52.034;20.650;2023-04-08T02:53:52;1.40;99.90
28767;DHT22;15921;52.034;20.650;2023-04-08T02:56:18;1.30;99.90
28767;DHT22;15921;52.034;20.650;2023-04-08T02:58:44;1.30;99.90
28767;DHT22;15921;52.034;20.650;2023-04-08T03:01:10;1.20;99.90
28767;DHT22;15921;52.034;20.650;2023-04-08T03:03:36;1.20;99.90
28767;DHT22;15921;52.034;20.650;2023-04-08T03:06:02;1.20;99.90
28767;DHT22;15921;52.034;20.650;2023-04-08T03:08:27;1.20;99.90
28767;DHT22;15921;52.034;20.650;2023-04-08T03:10:53;1.20;99.90
28767;DHT22;15921;52.034;20.650;2023-04-08T03:13:19;1.10;99.90
28767;DHT22;15921;52.034;20.650;2023-04-08T03:15:45;1.10;99.90
28767;DHT22;15921;52.034;20.650;2023-04-08T03:18:10;1.00;99.90
28767;DHT22;15921;52.034;20.650;2023-04-08T03:20:36;1.00;99.90
28767;DHT22;15921;52.034;20.650;2023-04-08T03:23:02;1.00;99.90
28767;DHT22;15921;52.034;20.650;2023-04-08T03:25:27;1.00;99.90
28767;DHT22;15921;52.034;20.650;2023-04-08T03:27:54;1.00;99.90
28767;DHT22;15921;52.034;20.650;2023-04-08T03:30:20;1.00;99.90
28767;DHT22;15921;52.034;20.650;2023-04-08T03:32:45;0.90;99.90
28767;DHT22;15921;52.034;20.650;2023-04-08T03:35:11;0.90;99.90
28767;DHT22;15921;52.034;20.650;2023-04-08T03:37:37;0.90;99.90
28767;DHT22;15921;52.034;20.650;2023-04-08T03:40:03;0.90;99.90
28767;DHT22;15921;52.034;20.650;2023-04-08T03:42:29;0.90;99.90
28767;DHT22;15921;52.034;20.650;2023-04-08T03:44:55;0.80;99.90
28767;DHT22;15921;52.034;20.650;2023-04-08T03:47:21;0.80;99.90
28767;DHT22;15921;52.034;20.650;2023-04-08T03:49:47;0.80;99.90
28767;DHT22;15921;52.034;20.650;2023-04-08T03:52:13;0.80;99.90
28767;DHT22;15921;52.034;20.650;2023-04-08T03:54:38;0.80;99.90
28767;DHT22;15921;52.034;20.650;2023-04-08T03:57:04;0.70;99.90
28767;DHT22;15921;52.034;20.650;2023-04-08T03:59:30;0.80;99.90
28767;DHT22;15921;52.034;20.650;2023-04-08T04:01:56;0.70;99.90
28767;DHT22;15921;52.034;20.650;2023-04-08T04:04:22;0.70;99.90
28767;DHT22;15921;52.034;20.650;2023-04-08T04:06:48;0.70;99.90
28767;DHT22;15921;52.034;20.650;2023-04-08T04:09:13;0.70;99.90
28767;DHT22;15921;52.034;20.650;2023-04-08T04:11:41;0.70;99.90
28767;DHT22;15921;52.034;20.650;2023-04-08T04:14:06;0.70;99.90
28767;DHT22;15921;52.034;20.650;2023-04-08T04:16:32;0.70;99.90
28767;DHT22;15921;52.034;20.650;2023-04-08T04:18:58;0.70;99.90
28767;DHT22;15921;52.034;20.650;2023-04-08T04:21:23;0.70;99.90
28767;DHT22;15921;52.034;20.650;2023-04-08T04:23:49;0.70;99.90
28767;DHT22;15921;52.034;20.650;2023-04-08T04:26:14;0.70;99.90
28767;DHT22;15921;52.034;20.650;2023-04-08T04:28:40;0.70;99.90
28767;DHT22;15921;52.034;20.650;2023-04-08T04:31:06;0.80;99.90
28767;DHT22;15921;52.034;20.650;2023-04-08T04:33:32;0.80;99.90
28767;DHT22;15921;52.034;20.650;2023-04-08T04:35:57;0.80;99.90
28767;DHT22;15921;52.034;20.650;2023-04-08T04:38:23;0.80;99.90
28767;DHT22;15921;52.034;20.650;2023-04-08T04:40:49;0.90;99.90
28767;DHT22;15921;52.034;20.650;2023-04-08T04:43:15;0.90;99.90
28767;DHT22;15921;52.034;20.650;2023-04-08T04:45:41;1.00;99.90
28767;DHT22;15921;52.034;20.650;2023-04-08T04:48:06;1.00;99.90
28767;DHT22;15921;52.034;20.650;2023-04-08T04:50:33;1.10;99.90
28767;DHT22;15921;52.034;20.650;2023-04-08T04:52:58;1.10;99.90
28767;DHT22;15921;52.034;20.650;2023-04-08T04:55:24;1.20;99.90
28767;DHT22;15921;52.034;20.650;2023-04-08T04:57:50;1.20;99.90
28767;DHT22;15921;52.034;20.650;2023-04-08T05:00:16;1.30;99.90
28767;DHT22;15921;52.034;20.650;2023-04-08T05:02:41;1.30;99.90
28767;DHT22;15921;52.034;20.650;2023-04-08T05:05:07;1.40;99.90
28767;DHT22;15921;52.034;20.650;2023-04-08T05:07:37;1.50;99.90
28767;DHT22;15921;52.034;20.650;2023-04-08T05:10:04;1.50;99.90
28767;DHT22;15921;52.034;20.650;2023-04-08T05:12:30;1.60;99.90
28767;DHT22;15921;52.034;20.650;2023-04-08T05:14:57;1.70;99.90
28767;DHT22;15921;52.034;20.650;2023-04-08T05:17:24;1.80;99.90
28767;DHT22;15921;52.034;20.650;2023-04-08T05:19:50;1.90;99.90
28767;DHT22;15921;52.034;20.650;2023-04-08T05:22:17;2.00;99.90
28767;DHT22;15921;52.034;20.650;2023-04-08T05:24:43;2.10;99.90
28767;DHT22;15921;52.034;20.650;2023-04-08T05:27:09;2.20;99.90
28767;DHT22;15921;52.034;20.650;2023-04-08T05:29:34;2.40;99.90
28767;DHT22;15921;52.034;20.650;2023-04-08T05:32:00;2.50;99.90
28767;DHT22;15921;52.034;20.650;2023-04-08T05:34:26;2.60;99.90
28767;DHT22;15921;52.034;20.650;2023-04-08T05:36:51;2.70;99.90
28767;DHT22;15921;52.034;20.650;2023-04-08T05:39:18;2.90;99.90
28767;DHT22;15921;52.034;20.650;2023-04-08T05:41:44;3.00;99.90
28767;DHT22;15921;52.034;20.650;2023-04-08T05:44:10;3.10;99.90
28767;DHT22;15921;52.034;20.650;2023-04-08T05:46:37;3.30;99.90
28767;DHT22;15921;52.034;20.650;2023-04-08T05:49:02;3.40;99.90
28767;DHT22;15921;52.034;20.650;2023-04-08T05:51:28;3.50;99.90
28767;DHT22;15921;52.034;20.650;2023-04-08T05:53:54;3.60;99.90
28767;DHT22;15921;52.034;20.650;2023-04-08T05:56:20;3.70;99.90
28767;DHT22;15921;52.034;20.650;2023-04-08T05:58:46;3.90;99.90
28767;DHT22;15921;52.034;20.650;2023-04-08T06:01:12;4.00;99.90
28767;DHT22;15921;52.034;20.650;2023-04-08T06:03:37;4.10;99.90
28767;DHT22;15921;52.034;20.650;2023-04-08T06:06:07;4.20;99.90
28767;DHT22;15921;52.034;20.650;2023-04-08T06:08:33;4.40;99.90
28767;DHT22;15921;52.034;20.650;2023-04-08T06:10:59;4.50;99.90
28767;DHT22;15921;52.034;20.650;2023-04-08T06:13:25;4.60;99.90
28767;DHT22;15921;52.034;20.650;2023-04-08T06:15:50;4.70;99.90
28767;DHT22;15921;52.034;20.650;2023-04-08T06:18:16;4.80;99.90
28767;DHT22;15921;52.034;20.650;2023-04-08T06:20:42;5.00;99.90
28767;DHT22;15921;52.034;20.650;2023-04-08T06:23:08;5.00;99.90
28767;DHT22;15921;52.034;20.650;2023-04-08T06:25:33;5.10;99.90
28767;DHT22;15921;52.034;20.650;2023-04-08T06:27:59;5.20;99.90
28767;DHT22;15921;52.034;20.650;2023-04-08T06:30:25;5.30;99.90
28767;DHT22;15921;52.034;20.650;2023-04-08T06:32:50;5.40;99.90
28767;DHT22;15921;52.034;20.650;2023-04-08T06:35:16;5.50;99.90
28767;DHT22;15921;52.034;20.650;2023-04-08T06:37:42;5.60;99.90
28767;DHT22;15921;52.034;20.650;2023-04-08T06:40:08;5.70;99.90
28767;DHT22;15921;52.034;20.650;2023-04-08T06:42:33;5.70;99.90
28767;DHT22;15921;52.034;20.650;2023-04-08T06:44:59;5.80;99.90
28767;DHT22;15921;52.034;20.650;2023-04-08T06:47:25;5.90;99.90
28767;DHT22;15921;52.034;20.650;2023-04-08T06:49:50;6.00;99.90
28767;DHT22;15921;52.034;20.650;2023-04-08T06:52:16;6.10;99.90
28767;DHT22;15921;52.034;20.650;2023-04-08T06:54:42;6.20;99.90
28767;DHT22;15921;52.034;20.650;2023-04-08T06:57:08;6.30;99.90
28767;DHT22;15921;52.034;20.650;2023-04-08T06:59:33;6.40;99.90
28767;DHT22;15921;52.034;20.650;2023-04-08T07:01:59;6.50;99.90
28767;DHT22;15921;52.034;20.650;2023-04-08T07:04:25;6.60;99.90
28767;DHT22;15921;52.034;20.650;2023-04-08T07:06:51;6.70;99.90
28767;DHT22;15921;52.034;20.650;2023-04-08T07:09:17;6.80;99.90
28767;DHT22;15921;52.034;20.650;2023-04-08T07:11:43;6.90;99.90
28767;DHT22;15921;52.034;20.650;2023-04-08T07:14:08;7.00;99.90
28767;DHT22;15921;52.034;20.650;2023-04-08T07:16:34;7.10;99.90
28767;DHT22;15921;52.034;20.650;2023-04-08T07:19:00;7.10;99.90
28767;DHT22;15921;52.034;20.650;2023-04-08T07:21:26;7.20;99.90
28767;DHT22;15921;52.034;20.650;2023-04-08T07:23:52;7.30;99.90
28767;DHT22;15921;52.034;20.650;2023-04-08T07:26:17;7.40;99.90
28767;DHT22;15921;52.034;20.650;2023-04-08T07:28:43;7.50;99.90
28767;DHT22;15921;52.034;20.650;2023-04-08T07:31:16;7.60;99.90
28767;DHT22;15921;52.034;20.650;2023-04-08T07:33:42;7.70;99.90
28767;DHT22;15921;52.034;20.650;2023-04-08T07:36:09;7.80;99.90
28767;DHT22;15921;52.034;20.650;2023-04-08T07:38:36;7.90;99.90
28767;DHT22;15921;52.034;20.650;2023-04-08T07:41:02;8.00;99.90
28767;DHT22;15921;52.034;20.650;2023-04-08T07:43:29;8.10;99.90
28767;DHT22;15921;52.034;20.650;2023-04-08T07:45:59;8.10;99.90
28767;DHT22;15921;52.034;20.650;2023-04-08T07:48:27;8.20;99.90
28767;DHT22;15921;52.034;20.650;2023-04-08T07:50:53;8.40;99.90
28767;DHT22;15921;52.034;20.650;2023-04-08T07:53:19;8.50;99.90
28767;DHT22;15921;52.034;20.650;2023-04-08T07:55:45;8.60;99.90
28767;DHT22;15921;52.034;20.650;2023-04-08T07:58:10;8.60;99.90
28767;DHT22;15921;52.034;20.650;2023-04-08T08:00:36;8.70;99.90
28767;DHT22;15921;52.034;20.650;2023-04-08T08:03:02;8.80;99.90
28767;DHT22;15921;52.034;20.650;2023-04-08T08:05:28;8.80;99.90
28767;DHT22;15921;52.034;20.650;2023-04-08T08:07:53;8.90;99.90
28767;DHT22;15921;52.034;20.650;2023-04-08T08:10:19;9.00;99.90
28767;DHT22;15921;52.034;20.650;2023-04-08T08:12:44;9.00;99.90
28767;DHT22;15921;52.034;20.650;2023-04-08T08:15:10;9.10;99.90
28767;DHT22;15921;52.034;20.650;2023-04-08T08:17:36;9.20;99.90
28767;DHT22;15921;52.034;20.650;2023-04-08T08:20:02;9.30;99.90
28767;DHT22;15921;52.034;20.650;2023-04-08T08:22:29;9.40;99.90
28767;DHT22;15921;52.034;20.650;2023-04-08T08:24:58;9.50;99.90
28767;DHT22;15921;52.034;20.650;2023-04-08T08:27:24;9.50;99.90
28767;DHT22;15921;52.034;20.650;2023-04-08T08:29:50;9.60;99.90
28767;DHT22;15921;52.034;20.650;2023-04-08T08:32:17;9.70;99.90
28767;DHT22;15921;52.034;20.650;2023-04-08T08:34:43;9.70;99.90
28767;DHT22;15921;52.034;20.650;2023-04-08T08:37:09;9.80;99.90
28767;DHT22;15921;52.034;20.650;2023-04-08T08:39:34;9.90;99.90
28767;DHT22;15921;52.034;20.650;2023-04-08T08:42:00;9.90;99.90
28767;DHT22;15921;52.034;20.650;2023-04-08T08:44:26;10.00;99.90
28767;DHT22;15921;52.034;20.650;2023-04-08T08:46:52;10.00;99.90
28767;DHT22;15921;52.034;20.650;2023-04-08T08:49:18;10.10;99.90
28767;DHT22;15921;52.034;20.650;2023-04-08T08:51:45;10.20;99.90
28767;DHT22;15921;52.034;20.650;2023-04-08T08:54:14;10.30;99.90
28767;DHT22;15921;52.034;20.650;2023-04-08T08:56:40;10.40;99.90
28767;DHT22;15921;52.034;20.650;2023-04-08T08:59:08;10.40;99.90
28767;DHT22;15921;52.034;20.650;2023-04-08T09:01:38;10.50;99.90
28767;DHT22;15921;52.034;20.650;2023-04-08T09:04:17;10.60;99.90
28767;DHT22;15921;52.034;20.650;2023-04-08T09:06:48;10.80;99.90
28767;DHT22;15921;52.034;20.650;2023-04-08T09:09:16;10.90;99.60
28767;DHT22;15921;52.034;20.650;2023-04-08T09:11:43;11.00;99.70
28767;DHT22;15921;52.034;20.650;2023-04-08T09:16:42;11.10;98.20
28767;DHT22;15921;52.034;20.650;2023-04-08T09:19:09;11.20;98.50
28767;DHT22;15921;52.034;20.650;2023-04-08T09:21:36;11.30;97.60
28767;DHT22;15921;52.034;20.650;2023-04-08T09:24:02;11.40;98.10
28767;DHT22;15921;52.034;20.650;2023-04-08T09:26:28;11.50;97.50
28767;DHT22;15921;52.034;20.650;2023-04-08T09:29:04;11.50;97.10
28767;DHT22;15921;52.034;20.650;2023-04-08T09:31:35;11.60;96.30
28767;DHT22;15921;52.034;20.650;2023-04-08T09:34:15;11.70;95.80
28767;DHT22;15921;52.034;20.650;2023-04-08T09:36:42;11.80;95.60
28767;DHT22;15921;52.034;20.650;2023-04-08T09:39:11;11.80;95.00
28767;DHT22;15921;52.034;20.650;2023-04-08T09:41:38;11.90;94.30
28767;DHT22;15921;52.034;20.650;2023-04-08T09:44:06;11.80;93.60
28767;DHT22;15921;52.034;20.650;2023-04-08T09:47:00;11.90;93.70
28767;DHT22;15921;52.034;20.650;2023-04-08T09:49:37;12.00;92.90
28767;DHT22;15921;52.034;20.650;2023-04-08T09:52:14;12.00;93.50
28767;DHT22;15921;52.034;20.650;2023-04-08T09:55:04;12.10;93.50
28767;DHT22;15921;52.034;20.650;2023-04-08T10:00:12;12.20;92.10
28767;DHT22;15921;52.034;20.650;2023-04-08T10:03:09;12.30;92.40
28767;DHT22;15921;52.034;20.650;2023-04-08T10:05:37;12.40;91.90
28767;DHT22;15921;52.034;20.650;2023-04-08T10:08:04;12.50;91.70
28767;DHT22;15921;52.034;20.650;2023-04-08T10:10:32;12.70;91.30
28767;DHT22;15921;52.034;20.650;2023-04-08T10:12:58;12.70;91.40
28767;DHT22;15921;52.034;20.650;2023-04-08T10:15:32;12.80;91.00
28767;DHT22;15921;52.034;20.650;2023-04-08T10:23:11;12.90;90.10
28767;DHT22;15921;52.034;20.650;2023-04-08T10:25:38;12.90;89.40
28767;DHT22;15921;52.034;20.650;2023-04-08T10:30:47;13.00;87.80
28767;DHT22;15921;52.034;20.650;2023-04-08T10:33:32;13.10;86.70
28767;DHT22;15921;52.034;20.650;2023-04-08T10:36:09;13.20;86.10
28767;DHT22;15921;52.034;20.650;2023-04-08T10:38:39;13.40;86.10
28767;DHT22;15921;52.034;20.650;2023-04-08T10:41:08;13.50;85.50
28767;DHT22;15921;52.034;20.650;2023-04-08T10:43:35;13.60;84.60
28767;DHT22;15921;52.034;20.650;2023-04-08T10:46:01;13.60;82.70
28767;DHT22;15921;52.034;20.650;2023-04-08T10:48:27;13.70;81.90
28767;DHT22;15921;52.034;20.650;2023-04-08T10:51:00;13.70;82.70
28767;DHT22;15921;52.034;20.650;2023-04-08T10:53:31;13.80;82.60
28767;DHT22;15921;52.034;20.650;2023-04-08T10:56:09;13.80;82.40
28767;DHT22;15921;52.034;20.650;2023-04-08T10:58:50;14.00;81.50
28767;DHT22;15921;52.034;20.650;2023-04-08T11:01:16;14.00;81.00
28767;DHT22;15921;52.034;20.650;2023-04-08T11:03:42;14.00;80.90
28767;DHT22;15921;52.034;20.650;2023-04-08T11:06:08;14.10;81.30
28767;DHT22;15921;52.034;20.650;2023-04-08T11:08:35;14.20;80.40
28767;DHT22;15921;52.034;20.650;2023-04-08T11:11:02;14.30;79.60
28767;DHT22;15921;52.034;20.650;2023-04-08T11:13:29;14.40;79.50
28767;DHT22;15921;52.034;20.650;2023-04-08T11:15:59;14.50;78.40
28767;DHT22;15921;52.034;20.650;2023-04-08T11:18:25;14.50;77.30
28767;DHT22;15921;52.034;20.650;2023-04-08T11:20:52;14.40;76.80
28767;DHT22;15921;52.034;20.650;2023-04-08T11:23:18;14.50;77.30
28767;DHT22;15921;52.034;20.650;2023-04-08T11:25:45;14.80;77.70
28767;DHT22;15921;52.034;20.650;2023-04-08T11:28:14;15.10;76.40
28767;DHT22;15921;52.034;20.650;2023-04-08T11:30:40;15.20;75.30
28767;DHT22;15921;52.034;20.650;2023-04-08T11:33:06;15.40;74.20
28767;DHT22;15921;52.034;20.650;2023-04-08T11:35:32;15.40;73.10
28767;DHT22;15921;52.034;20.650;2023-04-08T11:37:58;15.50;74.00
28767;DHT22;15921;52.034;20.650;2023-04-08T11:40:24;15.70;74.10
28767;DHT22;15921;52.034;20.650;2023-04-08T11:42:51;15.80;73.00
28767;DHT22;15921;52.034;20.650;2023-04-08T11:45:20;15.90;70.70
28767;DHT22;15921;52.034;20.650;2023-04-08T11:47:47;16.00;69.90
28767;DHT22;15921;52.034;20.650;2023-04-08T11:50:25;16.00;69.30
28767;DHT22;15921;52.034;20.650;2023-04-08T11:52:52;16.30;69.00
28767;DHT22;15921;52.034;20.650;2023-04-08T11:55:31;16.70;68.70
28767;DHT22;15921;52.034;20.650;2023-04-08T11:58:06;17.10;67.30
28767;DHT22;15921;52.034;20.650;2023-04-08T12:00:32;17.60;65.70
28767;DHT22;15921;52.034;20.650;2023-04-08T12:02:58;18.00;64.50
28767;DHT22;15921;52.034;20.650;2023-04-08T12:05:24;18.40;63.60
28767;DHT22;15921;52.034;20.650;2023-04-08T12:07:49;18.80;61.90
28767;DHT22;15921;52.034;20.650;2023-04-08T12:10:15;19.20;60.60
28767;DHT22;15921;52.034;20.650;2023-04-08T12:12:41;19.70;59.50
28767;DHT22;15921;52.034;20.650;2023-04-08T12:15:07;21.50;57.60
28767;DHT22;15921;52.034;20.650;2023-04-08T12:17:34;24.00;53.80
28767;DHT22;15921;52.034;20.650;2023-04-08T12:20:00;23.70;51.30
28767;DHT22;15921;52.034;20.650;2023-04-08T12:22:26;22.90;51.50
28767;DHT22;15921;52.034;20.650;2023-04-08T12:24:52;22.80;51.20
28767;DHT22;15921;52.034;20.650;2023-04-08T12:27:17;21.60;51.80
28767;DHT22;15921;52.034;20.650;2023-04-08T12:29:43;21.40;52.60
28767;DHT22;15921;52.034;20.650;2023-04-08T12:32:10;23.90;50.00
28767;DHT22;15921;52.034;20.650;2023-04-08T12:34:36;26.60;47.20
28767;DHT22;15921;52.034;20.650;2023-04-08T12:37:02;29.00;44.70
28767;DHT22;15921;52.034;20.650;2023-04-08T12:39:27;31.00;41.40
28767;DHT22;15921;52.034;20.650;2023-04-08T12:41:53;32.50;39.30
28767;DHT22;15921;52.034;20.650;2023-04-08T12:44:19;33.70;37.40
28767;DHT22;15921;52.034;20.650;2023-04-08T12:46:45;34.80;36.10
28767;DHT22;15921;52.034;20.650;2023-04-08T12:49:11;35.40;33.60
28767;DHT22;15921;52.034;20.650;2023-04-08T12:51:37;34.10;32.80
28767;DHT22;15921;52.034;20.650;2023-04-08T12:54:02;31.90;34.60
28767;DHT22;15921;52.034;20.650;2023-04-08T12:56:29;29.90;35.50
28767;DHT22;15921;52.034;20.650;2023-04-08T12:58:56;27.80;37.50
28767;DHT22;15921;52.034;20.650;2023-04-08T13:01:22;25.90;39.40
28767;DHT22;15921;52.034;20.650;2023-04-08T13:03:48;24.40;41.50
28767;DHT22;15921;52.034;20.650;2023-04-08T13:06:13;23.30;43.00
28767;DHT22;15921;52.034;20.650;2023-04-08T13:08:39;24.70;42.50
28767;DHT22;15921;52.034;20.650;2023-04-08T13:11:06;28.20;39.50
28767;DHT22;15921;52.034;20.650;2023-04-08T13:13:32;30.60;36.60
28767;DHT22;15921;52.034;20.650;2023-04-08T13:15:58;32.50;34.80
28767;DHT22;15921;52.034;20.650;2023-04-08T13:18:24;33.90;33.50
28767;DHT22;15921;52.034;20.650;2023-04-08T13:20:49;34.80;32.40
28767;DHT22;15921;52.034;20.650;2023-04-08T13:23:16;34.90;31.80
28767;DHT22;15921;52.034;20.650;2023-04-08T13:25:45;32.00;33.00
28767;DHT22;15921;52.034;20.650;2023-04-08T13:28:11;28.60;34.70
28767;DHT22;15921;52.034;20.650;2023-04-08T13:30:37;27.00;37.50
28767;DHT22;15921;52.034;20.650;2023-04-08T13:33:02;27.50;36.60
28767;DHT22;15921;52.034;20.650;2023-04-08T13:35:28;29.00;35.50
28767;DHT22;15921;52.034;20.650;2023-04-08T13:37:54;28.60;34.90
28767;DHT22;15921;52.034;20.650;2023-04-08T13:40:20;26.70;37.10
28767;DHT22;15921;52.034;20.650;2023-04-08T13:42:46;25.30;38.30
28767;DHT22;15921;52.034;20.650;2023-04-08T13:45:12;24.40;39.50
28767;DHT22;15921;52.034;20.650;2023-04-08T13:47:38;24.60;39.50
28767;DHT22;15921;52.034;20.650;2023-04-08T13:50:05;24.40;40.00
28767;DHT22;15921;52.034;20.650;2023-04-08T13:52:31;24.10;40.60
28767;DHT22;15921;52.034;20.650;2023-04-08T13:54:57;23.70;40.80
28767;DHT22;15921;52.034;20.650;2023-04-08T13:57:23;23.10;41.30
28767;DHT22;15921;52.034;20.650;2023-04-08T13:59:48;22.60;42.10
28767;DHT22;15921;52.034;20.650;2023-04-08T14:02:14;22.20;42.90
28767;DHT22;15921;52.034;20.650;2023-04-08T14:04:39;22.00;43.90
28767;DHT22;15921;52.034;20.650;2023-04-08T14:07:05;21.70;43.90
28767;DHT22;15921;52.034;20.650;2023-04-08T14:09:31;21.30;44.60
28767;DHT22;15921;52.034;20.650;2023-04-08T14:11:57;21.00;45.60
28767;DHT22;15921;52.034;20.650;2023-04-08T14:14:23;20.80;46.50
28767;DHT22;15921;52.034;20.650;2023-04-08T14:16:49;20.90;45.90
28767;DHT22;15921;52.034;20.650;2023-04-08T14:19:14;20.80;46.40
28767;DHT22;15921;52.034;20.650;2023-04-08T14:21:40;20.80;46.60
28767;DHT22;15921;52.034;20.650;2023-04-08T14:24:06;20.60;46.20
28767;DHT22;15921;52.034;20.650;2023-04-08T14:26:32;20.30;46.80
28767;DHT22;15921;52.034;20.650;2023-04-08T14:29:05;20.20;47.50
28767;DHT22;15921;52.034;20.650;2023-04-08T14:31:31;19.80;47.80
28767;DHT22;15921;52.034;20.650;2023-04-08T14:33:58;19.40;48.40
28767;DHT22;15921;52.034;20.650;2023-04-08T14:36:24;19.30;49.40
28767;DHT22;15921;52.034;20.650;2023-04-08T14:38:51;19.20;49.20
28767;DHT22;15921;52.034;20.650;2023-04-08T14:41:17;19.20;49.00
28767;DHT22;15921;52.034;20.650;2023-04-08T14:43:43;19.20;49.00
28767;DHT22;15921;52.034;20.650;2023-04-08T14:46:08;19.20;49.00
28767;DHT22;15921;52.034;20.650;2023-04-08T14:48:34;19.00;49.00
28767;DHT22;15921;52.034;20.650;2023-04-08T14:50:59;18.90;49.40
28767;DHT22;15921;52.034;20.650;2023-04-08T14:53:26;18.90;49.20
28767;DHT22;15921;52.034;20.650;2023-04-08T14:55:51;18.90;49.10
28767;DHT22;15921;52.034;20.650;2023-04-08T14:58:17;19.00;49.80
28767;DHT22;15921;52.034;20.650;2023-04-08T15:00:44;18.80;50.30
28767;DHT22;15921;52.034;20.650;2023-04-08T15:03:15;18.50;50.90
28767;DHT22;15921;52.034;20.650;2023-04-08T15:05:42;18.20;51.80
28767;DHT22;15921;52.034;20.650;2023-04-08T15:08:08;17.90;52.00
28767;DHT22;15921;52.034;20.650;2023-04-08T15:10:34;17.80;52.60
28767;DHT22;15921;52.034;20.650;2023-04-08T15:13:00;17.60;52.80
28767;DHT22;15921;52.034;20.650;2023-04-08T15:15:26;17.40;53.30
28767;DHT22;15921;52.034;20.650;2023-04-08T15:17:51;17.20;53.70
28767;DHT22;15921;52.034;20.650;2023-04-08T15:20:17;17.10;54.30
28767;DHT22;15921;52.034;20.650;2023-04-08T15:22:44;17.00;54.50
28767;DHT22;15921;52.034;20.650;2023-04-08T15:25:11;16.80;54.90
28767;DHT22;15921;52.034;20.650;2023-04-08T15:27:37;16.60;55.30
28767;DHT22;15921;52.034;20.650;2023-04-08T15:30:06;16.30;55.80
28767;DHT22;15921;52.034;20.650;2023-04-08T15:32:32;16.00;56.50
28767;DHT22;15921;52.034;20.650;2023-04-08T15:34:58;15.70;57.30
28767;DHT22;15921;52.034;20.650;2023-04-08T15:37:25;15.40;58.10
28767;DHT22;15921;52.034;20.650;2023-04-08T15:39:51;15.20;58.90
28767;DHT22;15921;52.034;20.650;2023-04-08T15:42:20;15.10;59.40